15°C Temp
10°C Dewpoint
% Humidity
Temperature
2 KM/H
1 MPH
1 KTS
Calm
Due North

Wind Speed
Clear
Conditions
Pressure 1014.92 (hPa) - 29.97 (in)
Visibility 6.2 (mi) - 10.0 (km)

Current Conditions
LIME
Location 30(km)
Metar :LIME 270550Z VRB01KT CAVOK 15/10 Q1015 NOSIG
Thu 27th May 06:50 am

Airport
  Metar Aviation API Data Provided by https://www.checkwx.com/ PHP scripts by weather34.com ©2021